createdAt,value
2022-07-29T00:00:14.423Z,18.34
2022-07-29T00:01:19.111Z,18.37
2022-07-29T00:02:22.569Z,18.35
2022-07-29T00:03:25.271Z,18.35
2022-07-29T00:04:28.020Z,18.36
2022-07-29T00:05:30.597Z,18.35
2022-07-29T00:06:33.621Z,18.33
2022-07-29T00:07:36.612Z,18.35
2022-07-29T00:08:39.257Z,18.36
2022-07-29T00:09:50.389Z,18.36
2022-07-29T00:10:46.385Z,18.37
2022-07-29T00:11:49.011Z,18.36
2022-07-29T00:12:51.714Z,18.36
2022-07-29T00:13:55.062Z,18.36
2022-07-29T00:14:57.631Z,18.33
2022-07-29T00:16:04.764Z,18.31
2022-07-29T00:17:04.814Z,18.31
2022-07-29T00:18:07.383Z,18.28
2022-07-29T00:19:10.048Z,18.26
2022-07-29T00:20:14.764Z,18.26
2022-07-29T00:21:18.356Z,18.23
2022-07-29T00:22:21.541Z,18.21
2022-07-29T00:23:24.519Z,18.22
2022-07-29T00:24:27.185Z,18.22
2022-07-29T00:25:29.745Z,18.20
2022-07-29T00:26:34.122Z,18.18
2022-07-29T00:27:36.725Z,18.18
2022-07-29T00:28:39.380Z,18.17
2022-07-29T00:29:41.912Z,18.14
2022-07-29T00:30:45.098Z,18.13
2022-07-29T00:31:47.782Z,18.14
2022-07-29T00:32:50.795Z,18.11
2022-07-29T00:33:53.452Z,18.11
2022-07-29T00:34:56.025Z,18.14
2022-07-29T00:35:58.589Z,18.13
2022-07-29T00:37:01.465Z,18.08
2022-07-29T00:38:04.048Z,18.05
2022-07-29T00:39:06.596Z,18.03
2022-07-29T00:40:10.083Z,18.04
2022-07-29T00:41:13.077Z,18.02
2022-07-29T00:42:15.729Z,18.01
2022-07-29T00:43:18.296Z,18.01
2022-07-29T00:44:20.882Z,17.96
2022-07-29T00:45:23.538Z,17.94
2022-07-29T00:46:27.971Z,17.97
2022-07-29T00:47:30.852Z,17.97
2022-07-29T00:48:33.489Z,17.94
2022-07-29T00:49:36.262Z,17.92
2022-07-29T00:50:39.239Z,17.91
2022-07-29T00:51:41.873Z,17.92
2022-07-29T00:52:44.470Z,17.92
2022-07-29T00:53:47.143Z,17.88
2022-07-29T00:54:49.707Z,17.86
2022-07-29T00:55:52.488Z,17.82
2022-07-29T00:56:55.562Z,17.81
2022-07-29T00:57:58.223Z,17.81
2022-07-29T00:59:00.802Z,17.80
2022-07-29T01:00:03.565Z,17.77
2022-07-29T01:01:06.783Z,17.78
2022-07-29T01:02:09.992Z,17.76
2022-07-29T01:03:12.804Z,17.73
2022-07-29T01:04:15.866Z,17.72
2022-07-29T01:05:20.005Z,17.72
2022-07-29T01:06:24.186Z,17.71
2022-07-29T01:07:26.831Z,17.72
2022-07-29T01:08:29.427Z,17.71
2022-07-29T01:09:40.875Z,17.71
2022-07-29T01:10:36.604Z,17.70
2022-07-29T01:11:39.400Z,17.71
2022-07-29T01:12:42.112Z,17.71
2022-07-29T01:13:44.713Z,17.69
2022-07-29T01:14:47.283Z,17.66
2022-07-29T01:15:50.010Z,17.64
2022-07-29T01:16:53.468Z,17.63
2022-07-29T01:17:56.117Z,17.64
2022-07-29T01:18:58.739Z,17.64
2022-07-29T01:20:01.348Z,17.62
2022-07-29T01:21:03.911Z,17.59
2022-07-29T01:22:06.478Z,17.59
2022-07-29T01:23:09.147Z,17.59
2022-07-29T01:24:12.090Z,17.58
2022-07-29T01:25:14.692Z,17.54
2022-07-29T01:26:20.442Z,17.55
2022-07-29T01:27:22.487Z,17.56
2022-07-29T01:28:25.462Z,17.51
2022-07-29T01:29:31.014Z,17.50
2022-07-29T01:30:34.428Z,17.49
2022-07-29T01:31:42.569Z,17.48
2022-07-29T01:32:41.466Z,17.46
2022-07-29T01:33:44.133Z,17.44
2022-07-29T01:34:46.704Z,17.44
2022-07-29T01:35:51.214Z,17.43
2022-07-29T01:36:53.887Z,17.43
2022-07-29T01:37:56.592Z,17.41
2022-07-29T01:38:59.204Z,17.41
2022-07-29T01:40:01.791Z,17.39
2022-07-29T01:41:04.456Z,17.42
2022-07-29T01:42:07.227Z,17.40
2022-07-29T01:43:09.796Z,17.37
2022-07-29T01:44:12.456Z,17.35
2022-07-29T01:45:15.544Z,17.32
2022-07-29T01:46:18.571Z,17.35
2022-07-29T01:47:21.461Z,17.34
2022-07-29T01:48:24.033Z,17.31
2022-07-29T01:49:26.643Z,17.30
2022-07-29T01:50:31.247Z,17.32
2022-07-29T01:51:33.813Z,17.34
2022-07-29T01:52:36.481Z,17.30
2022-07-29T01:53:39.182Z,17.31
2022-07-29T01:54:41.777Z,17.32
2022-07-29T01:55:44.387Z,17.32
2022-07-29T01:56:47.368Z,17.35
2022-07-29T01:57:49.930Z,17.34
2022-07-29T01:58:52.455Z,17.32
2022-07-29T01:59:55.637Z,17.28
2022-07-29T02:00:58.346Z,17.28
2022-07-29T02:02:00.957Z,17.27
2022-07-29T02:03:03.686Z,17.25
2022-07-29T02:04:06.315Z,17.24
2022-07-29T02:05:08.948Z,17.27
2022-07-29T02:06:12.306Z,17.29
2022-07-29T02:07:14.891Z,17.28
2022-07-29T02:08:17.455Z,17.26
2022-07-29T02:09:20.013Z,17.25
2022-07-29T02:10:25.847Z,17.26
2022-07-29T02:11:28.621Z,17.31
2022-07-29T02:12:31.149Z,17.35
2022-07-29T02:13:33.757Z,17.34
2022-07-29T02:14:36.424Z,17.36
2022-07-29T02:15:39.160Z,17.41
2022-07-29T02:16:42.378Z,17.56
2022-07-29T02:17:44.968Z,17.75
2022-07-29T02:18:47.614Z,17.93
2022-07-29T02:19:50.284Z,18.08
2022-07-29T02:20:53.364Z,18.24
2022-07-29T02:21:56.259Z,18.42
2022-07-29T02:22:58.908Z,18.55
2022-07-29T02:24:01.942Z,18.63
2022-07-29T02:25:04.558Z,18.67
2022-07-29T02:26:07.637Z,18.81
2022-07-29T02:27:10.408Z,19.04
2022-07-29T02:28:13.027Z,19.30
2022-07-29T02:29:15.598Z,19.54
2022-07-29T02:30:19.945Z,19.75
2022-07-29T02:31:22.580Z,19.89
2022-07-29T02:32:25.490Z,20.00
2022-07-29T02:33:28.771Z,20.16
2022-07-29T02:34:31.348Z,20.38
2022-07-29T02:35:34.546Z,20.65
2022-07-29T02:36:37.941Z,20.88
2022-07-29T02:37:40.585Z,21.08
2022-07-29T02:38:43.245Z,21.27
2022-07-29T02:39:45.935Z,21.48
2022-07-29T02:40:49.000Z,21.69
2022-07-29T02:41:52.485Z,21.88
2022-07-29T02:42:55.151Z,22.11
2022-07-29T02:43:57.717Z,22.30
2022-07-29T02:45:00.285Z,22.49
2022-07-29T02:46:03.015Z,22.70
2022-07-29T02:47:06.036Z,22.89
2022-07-29T02:48:08.662Z,23.06
2022-07-29T02:49:11.332Z,23.15
2022-07-29T02:50:15.130Z,23.20
2022-07-29T02:51:41.380Z,23.25
2022-07-29T02:52:22.348Z,23.33
2022-07-29T02:53:24.924Z,23.43
2022-07-29T02:54:27.484Z,23.46
2022-07-29T02:55:30.151Z,23.46
2022-07-29T02:56:33.640Z,23.49
2022-07-29T02:57:36.270Z,23.53
2022-07-29T02:58:40.821Z,23.46
2022-07-29T02:59:43.491Z,23.49
2022-07-29T03:00:46.474Z,23.50
2022-07-29T03:01:49.248Z,23.56
2022-07-29T03:02:51.908Z,23.55
2022-07-29T03:03:54.455Z,23.41
2022-07-29T03:04:57.081Z,23.31
2022-07-29T03:06:01.050Z,23.26
2022-07-29T03:07:03.712Z,23.17
2022-07-29T03:08:06.491Z,23.06
2022-07-29T03:09:13.009Z,22.95
2022-07-29T03:10:14.070Z,22.90
2022-07-29T03:11:16.645Z,22.89
2022-07-29T03:12:19.175Z,22.80
2022-07-29T03:13:21.845Z,22.69
2022-07-29T03:14:24.448Z,22.61
2022-07-29T03:15:27.018Z,22.40
2022-07-29T03:16:30.548Z,22.34
2022-07-29T03:17:33.175Z,22.26
2022-07-29T03:18:35.840Z,22.18
2022-07-29T03:19:38.512Z,22.12
2022-07-29T03:20:42.101Z,22.18
2022-07-29T03:21:44.770Z,22.17
2022-07-29T03:22:47.405Z,22.13
2022-07-29T03:23:50.721Z,22.15
2022-07-29T03:24:53.288Z,22.16
2022-07-29T03:25:56.007Z,22.15
2022-07-29T03:27:00.076Z,22.07
2022-07-29T03:28:02.742Z,22.08
2022-07-29T03:29:05.781Z,22.13
2022-07-29T03:30:09.019Z,22.08
2022-07-29T03:31:11.885Z,22.18
2022-07-29T03:32:15.453Z,22.12
2022-07-29T03:33:19.823Z,22.00
2022-07-29T03:34:23.558Z,21.85
2022-07-29T03:35:26.532Z,21.72
2022-07-29T03:36:30.944Z,21.65
2022-07-29T03:37:33.616Z,21.54
2022-07-29T03:38:36.180Z,21.43
2022-07-29T03:39:39.217Z,21.30
2022-07-29T03:40:42.033Z,21.19
2022-07-29T03:41:44.660Z,21.06
2022-07-29T03:42:47.682Z,20.92
2022-07-29T03:43:50.930Z,20.89
2022-07-29T03:44:53.528Z,20.85
2022-07-29T03:45:56.263Z,20.82
2022-07-29T03:46:59.289Z,20.74
2022-07-29T03:48:01.952Z,20.67
2022-07-29T03:49:04.733Z,20.64
2022-07-29T03:50:08.161Z,20.66
2022-07-29T03:51:12.717Z,20.67
2022-07-29T03:52:15.298Z,20.67
2022-07-29T03:53:17.912Z,20.71
2022-07-29T03:54:21.271Z,20.73
2022-07-29T03:55:24.319Z,20.68
2022-07-29T03:56:28.932Z,20.71
2022-07-29T03:57:31.503Z,20.76
2022-07-29T03:58:34.169Z,20.79
2022-07-29T03:59:36.732Z,20.80
2022-07-29T04:00:40.425Z,20.88
2022-07-29T04:01:43.127Z,20.96
2022-07-29T04:02:45.768Z,20.98
2022-07-29T04:03:48.379Z,21.06
2022-07-29T04:04:51.148Z,21.12
2022-07-29T04:05:53.777Z,21.19
2022-07-29T04:06:57.060Z,21.21
2022-07-29T04:07:59.725Z,21.29
2022-07-29T04:09:02.250Z,21.31
2022-07-29T04:10:05.065Z,21.36
2022-07-29T04:11:08.073Z,21.43
2022-07-29T04:12:10.708Z,21.48
2022-07-29T04:13:13.238Z,21.54
2022-07-29T04:14:16.179Z,21.63
2022-07-29T04:15:18.946Z,21.69
2022-07-29T04:16:22.625Z,21.69
2022-07-29T04:17:25.385Z,21.66
2022-07-29T04:18:27.955Z,21.74
2022-07-29T04:19:30.724Z,21.79
2022-07-29T04:20:34.112Z,21.84
2022-07-29T04:21:36.847Z,21.94
2022-07-29T04:22:39.557Z,22.04
2022-07-29T04:23:47.967Z,22.14
2022-07-29T04:24:46.732Z,22.23
2022-07-29T04:25:49.258Z,22.31
2022-07-29T04:26:52.073Z,22.35
2022-07-29T04:27:55.010Z,22.36
2022-07-29T04:28:57.619Z,22.48
2022-07-29T04:30:00.295Z,22.64
2022-07-29T04:31:03.009Z,22.68
2022-07-29T04:32:05.730Z,22.74
2022-07-29T04:33:08.397Z,22.85
2022-07-29T04:34:10.920Z,22.86
2022-07-29T04:35:13.551Z,22.83
2022-07-29T04:36:28.386Z,22.79
2022-07-29T04:37:22.460Z,22.80
2022-07-29T04:38:25.022Z,22.89
2022-07-29T04:39:29.594Z,22.89
2022-07-29T04:40:33.388Z,22.87
2022-07-29T04:41:36.821Z,22.93
2022-07-29T04:42:43.949Z,23.08
2022-07-29T04:43:44.630Z,23.22
2022-07-29T04:44:48.512Z,23.30
2022-07-29T04:45:53.054Z,23.42
2022-07-29T04:46:56.520Z,23.56
2022-07-29T04:47:59.200Z,23.61
2022-07-29T04:49:01.844Z,23.60
2022-07-29T04:50:04.934Z,23.62
2022-07-29T04:51:07.601Z,23.70
2022-07-29T04:52:10.276Z,23.85
2022-07-29T04:53:13.041Z,23.90
2022-07-29T04:54:15.842Z,23.93
2022-07-29T04:55:18.892Z,23.97
2022-07-29T04:56:22.793Z,23.99
2022-07-29T04:57:25.415Z,23.94
2022-07-29T04:58:28.029Z,23.98
2022-07-29T04:59:30.654Z,24.01
2022-07-29T05:00:33.885Z,24.08
2022-07-29T05:01:37.028Z,24.17
2022-07-29T05:02:39.797Z,24.25
2022-07-29T05:03:42.819Z,24.33
2022-07-29T05:04:45.681Z,24.43
2022-07-29T05:05:48.360Z,24.48
2022-07-29T05:06:51.327Z,24.56
2022-07-29T05:07:53.955Z,24.64
2022-07-29T05:08:56.672Z,24.72
2022-07-29T05:09:59.414Z,24.79
2022-07-29T05:11:11.663Z,24.81
2022-07-29T05:12:06.719Z,24.85
2022-07-29T05:13:09.350Z,24.93
2022-07-29T05:14:11.972Z,25.01
2022-07-29T05:15:14.626Z,25.07
2022-07-29T05:16:18.433Z,25.10
2022-07-29T05:17:21.092Z,25.14
2022-07-29T05:18:25.883Z,25.19
2022-07-29T05:19:28.270Z,25.22
2022-07-29T05:20:31.862Z,25.17
2022-07-29T05:21:34.840Z,25.24
2022-07-29T05:22:38.124Z,25.36
2022-07-29T05:23:40.783Z,25.44
2022-07-29T05:24:43.351Z,25.51
2022-07-29T05:25:45.935Z,25.66
2022-07-29T05:26:48.864Z,25.74
2022-07-29T05:27:51.461Z,25.75
2022-07-29T05:28:54.029Z,25.74
2022-07-29T05:29:56.699Z,25.53
2022-07-29T05:30:59.752Z,25.51
2022-07-29T05:32:02.447Z,25.52
2022-07-29T05:33:05.013Z,25.63
2022-07-29T05:34:07.582Z,25.73
2022-07-29T05:35:10.150Z,25.72
2022-07-29T05:36:14.046Z,25.71
2022-07-29T05:37:16.620Z,25.72
2022-07-29T05:38:19.280Z,25.77
2022-07-29T05:39:22.013Z,25.84
2022-07-29T05:40:25.650Z,25.96
2022-07-29T05:41:28.311Z,26.00
2022-07-29T05:42:30.943Z,26.12
2022-07-29T05:43:33.691Z,26.15
2022-07-29T05:44:36.282Z,26.26
2022-07-29T05:45:49.971Z,26.29
2022-07-29T05:46:43.748Z,26.41
2022-07-29T05:47:46.400Z,26.57
2022-07-29T05:48:49.098Z,26.58
2022-07-29T05:49:51.826Z,26.50
2022-07-29T05:50:54.693Z,26.52
2022-07-29T05:51:57.363Z,26.48
2022-07-29T05:53:00.027Z,26.59
2022-07-29T05:54:04.543Z,26.66
2022-07-29T05:55:07.211Z,26.74
2022-07-29T05:56:10.904Z,26.59
2022-07-29T05:57:13.880Z,26.66
2022-07-29T05:58:16.450Z,26.74
2022-07-29T05:59:19.014Z,26.63
2022-07-29T06:00:22.531Z,26.58
2022-07-29T06:01:25.864Z,26.46
2022-07-29T06:02:28.766Z,26.44
2022-07-29T06:03:31.742Z,26.47
2022-07-29T06:04:34.470Z,26.46
2022-07-29T06:05:37.435Z,26.55
2022-07-29T06:06:40.267Z,26.64
2022-07-29T06:07:50.218Z,26.66
2022-07-29T06:08:47.403Z,26.72
2022-07-29T06:09:50.015Z,26.88
2022-07-29T06:10:53.190Z,26.86
2022-07-29T06:11:55.767Z,26.81
2022-07-29T06:12:58.741Z,26.87
2022-07-29T06:14:01.404Z,27.08
2022-07-29T06:15:04.111Z,27.25
2022-07-29T06:16:06.945Z,27.47
2022-07-29T06:17:09.825Z,27.70
2022-07-29T06:18:12.492Z,27.86
2022-07-29T06:19:15.060Z,27.91
2022-07-29T06:20:19.063Z,27.96
2022-07-29T06:21:23.771Z,27.96
2022-07-29T06:22:26.808Z,28.07
2022-07-29T06:23:29.425Z,28.20
2022-07-29T06:24:32.127Z,27.99
2022-07-29T06:25:34.769Z,27.99
2022-07-29T06:26:39.655Z,27.84
2022-07-29T06:27:42.370Z,28.12
2022-07-29T06:28:45.027Z,28.08
2022-07-29T06:29:47.584Z,28.29
2022-07-29T06:30:50.425Z,28.12
2022-07-29T06:31:53.339Z,28.27
2022-07-29T06:32:55.909Z,28.52
2022-07-29T06:33:58.466Z,28.56
2022-07-29T06:35:31.946Z,28.45
2022-07-29T06:36:05.606Z,28.51
2022-07-29T06:37:08.226Z,28.34
2022-07-29T06:38:31.593Z,28.18
2022-07-29T06:39:17.356Z,27.93
2022-07-29T06:40:21.403Z,28.00
2022-07-29T06:41:24.733Z,27.91
2022-07-29T06:42:27.416Z,27.82
2022-07-29T06:43:30.374Z,27.25
2022-07-29T06:44:32.896Z,26.91
2022-07-29T06:45:35.429Z,27.20
2022-07-29T06:46:38.686Z,27.23
2022-07-29T06:47:41.358Z,26.89
2022-07-29T06:48:43.968Z,26.85
2022-07-29T06:49:46.595Z,26.88
2022-07-29T06:50:49.683Z,26.69
2022-07-29T06:51:52.368Z,26.73
2022-07-29T06:52:55.318Z,26.65
2022-07-29T06:54:00.217Z,26.63
2022-07-29T06:55:02.299Z,26.84
2022-07-29T06:56:05.108Z,27.25
2022-07-29T06:57:07.842Z,27.64
2022-07-29T06:58:10.507Z,27.93
2022-07-29T06:59:13.291Z,28.01
2022-07-29T07:00:16.459Z,28.26
2022-07-29T07:01:19.489Z,28.52
2022-07-29T07:02:22.491Z,28.83
2022-07-29T07:03:25.394Z,29.04
2022-07-29T07:04:28.059Z,29.06
2022-07-29T07:05:30.623Z,29.32
2022-07-29T07:06:33.396Z,29.59
2022-07-29T07:07:35.964Z,29.88
2022-07-29T07:08:38.736Z,30.13
2022-07-29T07:09:41.263Z,30.33
2022-07-29T07:10:44.072Z,30.53
2022-07-29T07:11:46.681Z,30.32
2022-07-29T07:12:51.172Z,29.67
2022-07-29T07:13:53.739Z,29.41
2022-07-29T07:14:56.332Z,28.87
2022-07-29T07:15:58.853Z,29.15
2022-07-29T07:17:01.971Z,28.92
2022-07-29T07:18:04.653Z,28.94
2022-07-29T07:19:07.384Z,28.84
2022-07-29T07:20:10.451Z,29.13
2022-07-29T07:21:19.277Z,29.12
2022-07-29T07:22:18.356Z,29.20
2022-07-29T07:23:22.759Z,29.53
2022-07-29T07:24:25.532Z,29.64
2022-07-29T07:25:28.204Z,29.70
2022-07-29T07:26:31.486Z,29.68
2022-07-29T07:27:34.051Z,29.74
2022-07-29T07:28:36.842Z,29.84
2022-07-29T07:29:39.394Z,29.95
2022-07-29T07:30:42.167Z,29.97
2022-07-29T07:31:44.918Z,29.93
2022-07-29T07:32:47.810Z,29.93
2022-07-29T07:33:50.438Z,30.02
2022-07-29T07:34:53.044Z,30.05
2022-07-29T07:35:55.716Z,30.10
2022-07-29T07:36:58.860Z,30.34
2022-07-29T07:38:01.421Z,30.46
2022-07-29T07:39:04.203Z,30.53
2022-07-29T07:40:07.942Z,30.45
2022-07-29T07:41:10.501Z,30.39
2022-07-29T07:42:13.368Z,30.35
2022-07-29T07:43:16.445Z,30.26
2022-07-29T07:44:19.253Z,30.19
2022-07-29T07:45:22.301Z,30.13
2022-07-29T07:46:26.881Z,30.13
2022-07-29T07:47:29.787Z,29.82
2022-07-29T07:48:32.354Z,29.72
2022-07-29T07:49:34.893Z,29.96
2022-07-29T07:50:37.819Z,29.61
2022-07-29T07:51:40.773Z,29.82
2022-07-29T07:52:43.441Z,30.12
2022-07-29T07:53:46.113Z,30.22
2022-07-29T07:54:49.090Z,30.42
2022-07-29T07:56:56.677Z,30.19
2022-07-29T07:57:59.244Z,30.08
2022-07-29T07:59:01.929Z,29.98
2022-07-29T08:00:04.990Z,29.94
2022-07-29T08:01:07.883Z,30.08
2022-07-29T08:02:11.101Z,30.36
2022-07-29T08:03:17.137Z,30.57
2022-07-29T08:04:22.190Z,30.80
2022-07-29T08:05:23.114Z,31.03
2022-07-29T08:06:26.749Z,31.26
2022-07-29T08:07:29.314Z,31.30
2022-07-29T08:08:32.128Z,31.32
2022-07-29T08:09:34.753Z,31.40
2022-07-29T08:10:37.427Z,31.31
2022-07-29T08:11:40.189Z,31.20
2022-07-29T08:12:44.699Z,31.18
2022-07-29T08:13:47.269Z,30.99
2022-07-29T08:14:49.854Z,30.78
2022-07-29T08:15:52.363Z,30.64
2022-07-29T08:16:55.325Z,30.63
2022-07-29T08:17:58.277Z,30.60
2022-07-29T08:19:00.833Z,30.60
2022-07-29T08:20:03.593Z,30.54
2022-07-29T08:21:06.080Z,30.42
2022-07-29T08:22:08.829Z,30.56
2022-07-29T08:23:11.863Z,30.78
2022-07-29T08:24:14.887Z,31.10
2022-07-29T08:25:17.558Z,31.33
2022-07-29T08:26:20.836Z,31.40
2022-07-29T08:27:42.375Z,31.57
2022-07-29T08:28:28.016Z,31.53
2022-07-29T08:29:30.584Z,31.26
2022-07-29T08:30:34.951Z,31.04
2022-07-29T08:31:37.607Z,30.77
2022-07-29T08:32:56.181Z,30.60
2022-07-29T08:33:44.847Z,30.36
2022-07-29T08:34:47.678Z,30.17
2022-07-29T08:35:50.293Z,30.02
2022-07-29T08:36:53.367Z,29.93
2022-07-29T08:37:56.037Z,30.00
2022-07-29T08:38:58.625Z,30.13
2022-07-29T08:40:01.273Z,30.25
2022-07-29T08:41:03.942Z,30.22
2022-07-29T08:42:06.669Z,30.31
2022-07-29T08:43:09.329Z,30.42
2022-07-29T08:44:12.053Z,30.53
2022-07-29T08:45:14.649Z,30.58
2022-07-29T08:46:19.112Z,30.62
2022-07-29T08:47:21.759Z,30.65
2022-07-29T08:48:24.674Z,30.69
2022-07-29T08:49:27.401Z,30.85
2022-07-29T08:50:31.033Z,30.91
2022-07-29T08:51:33.599Z,30.94
2022-07-29T08:52:38.025Z,31.06
2022-07-29T08:53:40.724Z,31.09
2022-07-29T08:54:43.353Z,31.09
2022-07-29T08:55:46.024Z,31.04
2022-07-29T08:56:48.688Z,31.02
2022-07-29T08:57:54.474Z,31.07
2022-07-29T08:58:55.769Z,31.12
2022-07-29T08:59:58.540Z,31.31
2022-07-29T09:01:02.887Z,31.49
2022-07-29T09:02:05.755Z,31.71
2022-07-29T09:03:11.994Z,31.84
2022-07-29T09:04:14.749Z,31.87
2022-07-29T09:05:17.417Z,31.87
2022-07-29T09:06:21.928Z,31.80
2022-07-29T09:07:24.600Z,31.74
2022-07-29T09:08:29.109Z,31.67
2022-07-29T09:09:31.788Z,31.60
2022-07-29T09:10:34.857Z,31.61
2022-07-29T09:11:37.449Z,31.57
2022-07-29T09:12:40.096Z,31.59
2022-07-29T09:13:42.726Z,31.57
2022-07-29T09:14:45.329Z,31.63
2022-07-29T09:15:47.896Z,31.90
2022-07-29T09:16:53.458Z,32.01
2022-07-29T09:17:55.489Z,32.01
2022-07-29T09:18:58.270Z,31.97
2022-07-29T09:20:00.932Z,32.03
2022-07-29T09:21:03.495Z,32.12
2022-07-29T09:22:06.538Z,31.91
2022-07-29T09:23:09.551Z,31.71
2022-07-29T09:24:12.124Z,31.84
2022-07-29T09:25:14.991Z,32.21
2022-07-29T09:26:18.753Z,32.38
2022-07-29T09:27:21.392Z,32.61
2022-07-29T09:28:23.921Z,32.76
2022-07-29T09:29:26.653Z,32.59
2022-07-29T09:30:31.867Z,32.81
2022-07-29T09:31:34.937Z,32.98
2022-07-29T09:32:37.881Z,33.06
2022-07-29T09:33:40.545Z,33.08
2022-07-29T09:34:43.213Z,33.07
2022-07-29T09:35:56.568Z,33.16
2022-07-29T09:36:50.560Z,33.12
2022-07-29T09:37:53.173Z,33.13
2022-07-29T09:38:55.836Z,33.02
2022-07-29T09:39:58.464Z,32.96
2022-07-29T09:41:06.125Z,32.83
2022-07-29T09:42:05.900Z,32.73
2022-07-29T09:43:08.522Z,32.61
2022-07-29T09:44:11.229Z,32.39
2022-07-29T09:45:13.757Z,32.37
2022-07-29T09:46:17.868Z,32.38
2022-07-29T09:47:20.776Z,32.60
2022-07-29T09:48:23.343Z,32.63
2022-07-29T09:49:26.114Z,32.58
2022-07-29T09:50:29.249Z,32.52
2022-07-29T09:51:37.845Z,32.17
2022-07-29T09:52:36.373Z,32.10
2022-07-29T09:53:39.349Z,32.34
2022-07-29T09:54:41.978Z,32.46
2022-07-29T09:55:44.587Z,32.62
2022-07-29T09:56:47.831Z,32.69
2022-07-29T09:57:50.435Z,32.80
2022-07-29T09:58:53.104Z,32.58
2022-07-29T09:59:55.673Z,32.78
2022-07-29T10:00:58.665Z,32.98
2022-07-29T10:02:01.866Z,33.07
2022-07-29T10:03:06.059Z,33.10
2022-07-29T10:04:09.033Z,33.00
2022-07-29T10:05:11.711Z,32.97
2022-07-29T10:06:16.191Z,32.89
2022-07-29T10:07:18.758Z,32.94
2022-07-29T10:08:21.325Z,33.10
2022-07-29T10:09:23.892Z,33.24
2022-07-29T10:10:27.280Z,33.35
2022-07-29T10:11:37.830Z,33.36
2022-07-29T10:12:34.365Z,33.29
2022-07-29T10:13:37.130Z,33.29
2022-07-29T10:14:39.757Z,33.31
2022-07-29T10:15:42.367Z,33.31
2022-07-29T10:16:45.405Z,33.32
2022-07-29T10:17:48.320Z,33.36
2022-07-29T10:18:50.889Z,33.42
2022-07-29T10:19:55.501Z,33.43
2022-07-29T10:20:59.399Z,33.41
2022-07-29T10:22:02.324Z,33.41
2022-07-29T10:23:06.811Z,33.44
2022-07-29T10:24:14.871Z,33.43
2022-07-29T10:26:24.012Z,33.48
2022-07-29T10:27:26.580Z,33.31
2022-07-29T10:28:29.144Z,33.30
2022-07-29T10:29:31.713Z,33.26
2022-07-29T10:30:35.055Z,33.25
2022-07-29T10:31:37.683Z,33.09
2022-07-29T10:32:40.741Z,33.07
2022-07-29T10:33:43.309Z,32.87
2022-07-29T10:34:46.084Z,33.02
2022-07-29T10:35:48.605Z,33.08
2022-07-29T10:36:51.423Z,33.10
2022-07-29T10:37:54.088Z,33.10
2022-07-29T10:38:57.993Z,33.20
2022-07-29T10:40:00.965Z,33.34
2022-07-29T10:41:03.530Z,33.45
2022-07-29T10:42:08.041Z,33.48
2022-07-29T10:43:12.051Z,33.54
2022-07-29T10:44:17.364Z,33.59
2022-07-29T10:45:21.237Z,33.65
2022-07-29T10:46:25.545Z,33.82
2022-07-29T10:47:28.567Z,33.88
2022-07-29T10:48:31.225Z,33.78
2022-07-29T10:49:34.237Z,33.82
2022-07-29T10:50:38.816Z,33.69
2022-07-29T10:51:41.385Z,33.74
2022-07-29T10:52:44.677Z,33.90
2022-07-29T10:53:47.297Z,34.00
2022-07-29T10:54:50.624Z,33.88
2022-07-29T10:55:53.187Z,33.89
2022-07-29T10:56:56.883Z,34.03
2022-07-29T10:57:59.553Z,34.25
2022-07-29T10:59:02.693Z,34.46
2022-07-29T11:00:05.809Z,34.67
2022-07-29T11:01:08.789Z,34.74
2022-07-29T11:02:36.464Z,34.72
2022-07-29T11:03:17.250Z,34.64
2022-07-29T11:04:20.181Z,34.54
2022-07-29T11:05:24.687Z,34.39
2022-07-29T11:06:29.509Z,34.30
2022-07-29T11:07:45.648Z,34.22
2022-07-29T11:08:36.690Z,34.09
2022-07-29T11:09:39.669Z,34.01
2022-07-29T11:10:42.949Z,33.97
2022-07-29T11:11:51.497Z,33.93
2022-07-29T11:12:51.973Z,34.09
2022-07-29T11:13:54.556Z,34.30
2022-07-29T11:14:57.315Z,34.58
2022-07-29T11:16:00.909Z,34.68
2022-07-29T11:17:06.505Z,34.47
2022-07-29T11:18:08.396Z,34.39
2022-07-29T11:19:13.428Z,34.10
2022-07-29T11:20:17.931Z,34.03
2022-07-29T11:21:23.321Z,34.00
2022-07-29T11:22:26.732Z,33.83
2022-07-29T11:23:33.864Z,33.92
2022-07-29T11:24:35.087Z,33.87
2022-07-29T11:25:50.729Z,33.80
2022-07-29T11:26:42.984Z,33.74
2022-07-29T11:27:47.470Z,33.75
2022-07-29T11:28:50.749Z,33.69
2022-07-29T11:29:53.595Z,33.60
2022-07-29T11:30:56.418Z,33.51
2022-07-29T11:32:00.559Z,33.49
2022-07-29T11:33:04.196Z,33.47
2022-07-29T11:34:07.197Z,33.57
2022-07-29T11:35:17.836Z,33.61
2022-07-29T11:36:16.763Z,33.67
2022-07-29T11:37:20.046Z,33.61
2022-07-29T11:38:23.993Z,33.44
2022-07-29T11:40:34.656Z,33.18
2022-07-29T11:41:39.381Z,33.26
2022-07-29T11:42:44.577Z,33.54
2022-07-29T11:43:47.272Z,33.80
2022-07-29T11:44:51.788Z,33.92
2022-07-29T11:45:55.377Z,34.15
2022-07-29T11:46:58.258Z,34.34
2022-07-29T11:48:28.982Z,34.42
2022-07-29T11:49:09.185Z,34.50
2022-07-29T11:50:11.902Z,34.61
2022-07-29T11:51:15.694Z,34.68
2022-07-29T11:52:18.977Z,34.78
2022-07-29T11:53:21.664Z,34.78
2022-07-29T11:55:32.337Z,34.64
2022-07-29T11:56:35.175Z,34.65
2022-07-29T11:57:39.444Z,34.37
2022-07-29T11:58:43.380Z,33.98
2022-07-29T11:59:47.178Z,34.11
2022-07-29T12:00:49.908Z,34.01
2022-07-29T12:02:02.425Z,33.67
2022-07-29T12:02:57.876Z,33.80
2022-07-29T12:04:02.260Z,33.59
2022-07-29T12:05:10.644Z,33.81
2022-07-29T12:06:11.346Z,33.85
2022-07-29T12:07:01.815Z,33.61
2022-07-29T12:07:15.871Z,33.87
2022-07-29T12:08:18.684Z,33.87
2022-07-29T12:09:21.640Z,33.71
2022-07-29T12:10:30.717Z,33.57
2022-07-29T12:11:31.720Z,33.52
2022-07-29T12:12:34.222Z,33.78
2022-07-29T12:13:37.061Z,33.57
2022-07-29T12:14:40.925Z,33.86
2022-07-29T12:15:46.107Z,34.16
2022-07-29T12:16:48.696Z,34.46
2022-07-29T12:17:51.599Z,34.38
2022-07-29T12:18:54.276Z,34.48
2022-07-29T12:19:56.935Z,34.70
2022-07-29T12:21:03.609Z,34.85
2022-07-29T12:22:05.202Z,35.02
2022-07-29T12:23:08.937Z,35.20
2022-07-29T12:24:11.871Z,35.30
2022-07-29T12:25:32.445Z,35.45
2022-07-29T12:26:21.815Z,35.31
2022-07-29T12:27:29.533Z,35.51
2022-07-29T12:28:28.429Z,35.50
2022-07-29T12:29:35.584Z,35.53
2022-07-29T12:30:35.819Z,35.22
2022-07-29T12:31:42.784Z,35.44
2022-07-29T12:32:43.409Z,35.71
2022-07-29T12:33:45.979Z,35.74
2022-07-29T12:34:48.540Z,35.89
2022-07-29T12:36:03.817Z,36.04
2022-07-29T12:36:55.825Z,36.11
2022-07-29T12:37:58.493Z,35.67
2022-07-29T12:39:01.058Z,35.69
2022-07-29T12:40:03.933Z,35.70
2022-07-29T12:41:07.828Z,34.55
2022-07-29T12:42:13.786Z,34.76
2022-07-29T12:43:15.318Z,34.64
2022-07-29T12:44:18.263Z,34.67
2022-07-29T12:45:20.872Z,34.70
2022-07-29T12:46:23.980Z,34.41
2022-07-29T12:47:26.611Z,34.03
2022-07-29T12:48:29.135Z,34.30
2022-07-29T12:49:31.743Z,34.41
2022-07-29T12:50:38.100Z,34.19
2022-07-29T12:51:40.667Z,33.58
2022-07-29T12:52:43.752Z,33.79
2022-07-29T12:53:46.415Z,33.91
2022-07-29T12:54:48.986Z,33.47
2022-07-29T12:55:51.917Z,32.36
2022-07-29T12:56:55.040Z,32.63
2022-07-29T12:57:57.610Z,32.88
2022-07-29T12:59:00.278Z,33.17
2022-07-29T13:00:03.252Z,33.52
2022-07-29T13:01:06.268Z,33.77
2022-07-29T13:02:10.803Z,33.80
2022-07-29T13:03:14.948Z,33.83
2022-07-29T13:04:17.923Z,33.86
2022-07-29T13:05:20.490Z,33.96
2022-07-29T13:06:24.800Z,33.89
2022-07-29T13:07:55.191Z,33.94
2022-07-29T13:08:31.831Z,33.82
2022-07-29T13:09:34.321Z,34.03
2022-07-29T13:10:37.012Z,34.24
2022-07-29T13:11:39.576Z,34.38
2022-07-29T13:12:42.166Z,34.44
2022-07-29T13:13:44.810Z,34.37
2022-07-29T13:14:47.390Z,34.22
2022-07-29T13:15:49.924Z,33.83
2022-07-29T13:16:52.715Z,32.53
2022-07-29T13:17:55.383Z,32.24
2022-07-29T13:18:57.935Z,32.01
2022-07-29T13:20:00.525Z,31.95
2022-07-29T13:21:05.039Z,31.49
2022-07-29T13:22:07.599Z,31.53
2022-07-29T13:23:10.582Z,31.55
2022-07-29T13:24:15.756Z,31.43
2022-07-29T13:25:17.638Z,31.29
2022-07-29T13:26:20.645Z,31.19
2022-07-29T13:27:23.126Z,31.26
2022-07-29T13:28:25.618Z,31.38
2022-07-29T13:29:31.461Z,31.60
2022-07-29T13:30:32.982Z,31.73
2022-07-29T13:31:35.624Z,31.94
2022-07-29T13:32:38.316Z,32.06
2022-07-29T13:33:40.970Z,32.19
2022-07-29T13:34:43.489Z,32.24
2022-07-29T13:35:46.092Z,32.31